createdAt,value
2022-09-02T00:02:11.075Z,96681.50
2022-09-02T00:04:40.831Z,96677.59
2022-09-02T00:07:09.074Z,96672.88
2022-09-02T00:09:37.623Z,96673.84
2022-09-02T00:12:06.806Z,96679.59
2022-09-02T00:14:37.386Z,96673.16
2022-09-02T00:17:05.582Z,96668.16
2022-09-02T00:19:33.870Z,96667.06
2022-09-02T00:22:03.995Z,96662.75
2022-09-02T00:24:32.414Z,96668.25
2022-09-02T00:27:00.624Z,96663.22
2022-09-02T00:29:29.251Z,96670.91
2022-09-02T00:31:57.991Z,96657.63
2022-09-02T00:34:26.582Z,96668.84
2022-09-02T00:36:55.267Z,96658.63
2022-09-02T00:39:24.661Z,96665.22
2022-09-02T00:41:52.789Z,96656.53
2022-09-02T00:44:22.264Z,96655.72
2022-09-02T00:46:50.323Z,96661.31
2022-09-02T00:49:25.178Z,96656.00
2022-09-02T00:51:58.552Z,96661.06
2022-09-02T00:54:30.988Z,96660.50
2022-09-02T00:57:01.439Z,96662.44
2022-09-02T00:59:44.470Z,96655.59
2022-09-02T01:02:13.485Z,96657.84
2022-09-02T01:04:43.174Z,96651.31
2022-09-02T01:07:11.278Z,96647.94
2022-09-02T01:09:41.301Z,96657.88
2022-09-02T01:12:12.737Z,96653.56
2022-09-02T01:14:40.778Z,96658.16
2022-09-02T01:17:09.619Z,96657.75
2022-09-02T01:19:41.712Z,96650.47
2022-09-02T01:22:19.719Z,96648.78
2022-09-02T01:24:47.818Z,96663.47
2022-09-02T01:27:17.703Z,96658.88
2022-09-02T01:30:12.671Z,96653.41
2022-09-02T01:32:41.124Z,96646.84
2022-09-02T01:35:11.022Z,96656.78
2022-09-02T01:37:42.207Z,96657.06
2022-09-02T01:40:23.697Z,96653.25
2022-09-02T01:42:55.874Z,96662.50
2022-09-02T01:45:24.498Z,96653.97
2022-09-02T01:47:52.867Z,96659.16
2022-09-02T01:50:21.038Z,96662.19
2022-09-02T01:52:50.396Z,96656.47
2022-09-02T01:55:18.480Z,96655.06
2022-09-02T01:57:47.657Z,96657.84
2022-09-02T02:00:17.568Z,96656.19
2022-09-02T02:02:45.644Z,96651.56
2022-09-02T02:05:15.914Z,96644.56
2022-09-02T02:07:46.099Z,96652.25
2022-09-02T02:10:17.612Z,96656.72
2022-09-02T02:12:46.193Z,96651.41
2022-09-02T02:15:17.341Z,96654.47
2022-09-02T02:17:45.459Z,96652.94
2022-09-02T02:20:16.093Z,96653.63
2022-09-02T02:22:44.738Z,96649.44
2022-09-02T02:25:14.983Z,96638.94
2022-09-02T02:27:45.640Z,96647.03
2022-09-02T02:30:16.447Z,96643.72
2022-09-02T02:32:47.078Z,96638.53
2022-09-02T02:35:20.084Z,96639.50
2022-09-02T02:37:50.348Z,96635.28
2022-09-02T02:40:20.949Z,96627.63
2022-09-02T02:42:53.285Z,96631.94
2022-09-02T02:45:24.552Z,96639.06
2022-09-02T02:47:53.903Z,96635.03
2022-09-02T02:50:25.151Z,96633.06
2022-09-02T02:52:54.767Z,96630.97
2022-09-02T02:55:24.657Z,96630.66
2022-09-02T02:57:54.259Z,96631.38
2022-09-02T03:00:25.307Z,96636.09
2022-09-02T03:02:57.129Z,96628.28
2022-09-02T03:05:25.870Z,96627.16
2022-09-02T03:07:53.927Z,96625.47
2022-09-02T03:10:23.751Z,96626.69
2022-09-02T03:12:51.958Z,96621.56
2022-09-02T03:15:23.005Z,96629.63
2022-09-02T03:17:54.311Z,96627.81
2022-09-02T03:20:23.287Z,96625.72
2022-09-02T03:22:57.747Z,96625.72
2022-09-02T03:25:28.897Z,96626.53
2022-09-02T03:27:59.066Z,96625.13
2022-09-02T03:30:30.302Z,96626.13
2022-09-02T03:33:04.037Z,96618.69
2022-09-02T03:35:35.408Z,96619.41
2022-09-02T03:38:03.459Z,96620.38
2022-09-02T03:40:31.595Z,96613.81
2022-09-02T03:43:00.577Z,96621.75
2022-09-02T03:45:32.073Z,96621.53
2022-09-02T03:48:05.395Z,96615.66
2022-09-02T03:50:40.959Z,96617.59
2022-09-02T03:53:23.258Z,96617.19
2022-09-02T03:55:57.127Z,96611.78
2022-09-02T03:58:27.851Z,96613.31
2022-09-02T04:00:59.263Z,96610.66
2022-09-02T04:03:27.828Z,96616.78
2022-09-02T04:05:56.152Z,96612.31
2022-09-02T04:08:27.190Z,96611.47
2022-09-02T04:10:58.759Z,96622.47
2022-09-02T04:13:27.807Z,96620.38
2022-09-02T04:15:59.756Z,96613.09
2022-09-02T04:18:31.644Z,96615.31
2022-09-02T04:21:01.403Z,96611.28
2022-09-02T04:23:30.208Z,96615.16
2022-09-02T04:25:58.428Z,96616.53
2022-09-02T04:28:26.713Z,96619.84
2022-09-02T04:30:55.093Z,96624.44
2022-09-02T04:33:23.441Z,96622.19
2022-09-02T04:35:53.406Z,96626.53
2022-09-02T04:38:22.239Z,96627.84
2022-09-02T04:40:50.290Z,96620.03
2022-09-02T04:43:20.240Z,96617.63
2022-09-02T04:45:49.479Z,96617.63
2022-09-02T04:48:20.269Z,96619.59
2022-09-02T04:50:50.050Z,96619.13
2022-09-02T04:53:20.176Z,96623.47
2022-09-02T04:55:48.632Z,96625.41
2022-09-02T04:58:16.934Z,96622.75
2022-09-02T05:00:48.311Z,96618.81
2022-09-02T05:03:20.093Z,96619.78
2022-09-02T05:05:49.341Z,96617.84
2022-09-02T05:08:22.435Z,96619.06
2022-09-02T05:10:53.354Z,96614.88
2022-09-02T05:13:22.851Z,96611.97
2022-09-02T05:15:51.493Z,96617.13
2022-09-02T05:18:20.533Z,96619.50
2022-09-02T05:20:48.870Z,96614.22
2022-09-02T05:23:20.494Z,96622.44
2022-09-02T05:25:48.715Z,96613.28
2022-09-02T05:28:18.618Z,96613.81
2022-09-02T05:30:47.341Z,96618.88
2022-09-02T05:33:16.686Z,96618.50
2022-09-02T05:35:49.810Z,96610.00
2022-09-02T05:38:20.244Z,96614.09
2022-09-02T05:40:49.057Z,96616.25
2022-09-02T05:43:17.161Z,96616.53
2022-09-02T05:45:45.270Z,96614.19
2022-09-02T05:48:27.606Z,96610.06
2022-09-02T05:50:59.280Z,96616.25
2022-09-02T05:53:30.473Z,96609.00
2022-09-02T05:56:00.217Z,96618.63
2022-09-02T05:58:29.948Z,96610.16
2022-09-02T06:00:57.951Z,96618.84
2022-09-02T06:03:26.109Z,96618.13
2022-09-02T06:05:56.439Z,96624.69
2022-09-02T06:08:25.231Z,96619.97
2022-09-02T06:10:54.752Z,96621.66
2022-09-02T06:13:26.614Z,96604.75
2022-09-02T06:15:57.879Z,96613.56
2022-09-02T06:18:29.072Z,96609.81
2022-09-02T06:20:58.836Z,96607.41
2022-09-02T06:23:32.081Z,96605.72
2022-09-02T06:26:04.335Z,96604.56
2022-09-02T06:28:32.978Z,96603.41
2022-09-02T06:31:06.986Z,96597.75
2022-09-02T06:33:35.023Z,96597.44
2022-09-02T06:36:06.370Z,96602.13
2022-09-02T06:38:42.670Z,96611.03
2022-09-02T06:41:18.835Z,96597.41
2022-09-02T06:43:47.659Z,96599.19
2022-09-02T06:46:28.089Z,96604.31
2022-09-02T06:48:59.592Z,96606.22
2022-09-02T06:51:31.501Z,96607.28
2022-09-02T06:54:02.380Z,96603.72
2022-09-02T06:56:35.642Z,96606.78
2022-09-02T06:59:04.851Z,96607.84
2022-09-02T07:01:44.656Z,96608.22
2022-09-02T07:04:33.666Z,96605.47
2022-09-02T07:07:01.743Z,96606.06
2022-09-02T07:09:33.076Z,96598.75
2022-09-02T07:12:12.470Z,96588.19
2022-09-02T07:14:47.865Z,96587.41
2022-09-02T07:17:23.576Z,96583.94
2022-09-02T07:19:59.243Z,96587.06
2022-09-02T07:22:29.443Z,96588.72
2022-09-02T07:24:58.827Z,96587.44
2022-09-02T07:27:29.751Z,96584.97
2022-09-02T07:29:59.252Z,96589.53
2022-09-02T07:32:27.923Z,96585.56
2022-09-02T07:34:56.107Z,96577.06
2022-09-02T07:37:24.309Z,96579.25
2022-09-02T07:39:53.895Z,96582.97
2022-09-02T07:42:21.973Z,96582.69
2022-09-02T07:44:51.388Z,96580.03
2022-09-02T07:47:19.346Z,96580.72
2022-09-02T07:52:37.658Z,96588.66
2022-09-02T07:55:10.261Z,96579.63
2022-09-02T07:57:40.853Z,96579.00
2022-09-02T08:00:14.018Z,96578.81
2022-09-02T08:02:42.519Z,96572.00
2022-09-02T08:05:14.061Z,96582.56
2022-09-02T08:07:42.805Z,96572.22
2022-09-02T08:10:13.029Z,96586.44
2022-09-02T08:12:41.864Z,96582.59
2022-09-02T08:15:13.087Z,96582.78
2022-09-02T08:17:42.008Z,96583.13
2022-09-02T08:20:12.635Z,96581.63
2022-09-02T08:22:41.749Z,96582.63
2022-09-02T08:25:10.765Z,96580.94
2022-09-02T08:27:41.365Z,96574.94
2022-09-02T08:30:11.994Z,96580.63
2022-09-02T08:32:40.510Z,96576.41
2022-09-02T08:35:10.395Z,96576.59
2022-09-02T08:37:39.264Z,96583.28
2022-09-02T08:40:12.026Z,96575.91
2022-09-02T08:42:47.252Z,96576.91
2022-09-02T08:45:25.749Z,96575.75
2022-09-02T08:48:02.436Z,96576.91
2022-09-02T08:50:32.347Z,96568.53
2022-09-02T08:53:09.050Z,96575.59
2022-09-02T08:55:44.464Z,96574.22
2022-09-02T08:58:17.993Z,96574.91
2022-09-02T09:00:58.723Z,96566.38
2022-09-02T09:03:31.771Z,96561.53
2022-09-02T09:06:07.500Z,96564.69
2022-09-02T09:08:47.190Z,96561.31
2022-09-02T09:11:25.125Z,96557.16
2022-09-02T09:14:13.537Z,96568.84
2022-09-02T09:16:50.821Z,96555.81
2022-09-02T09:19:29.658Z,96560.75
2022-09-02T09:22:03.251Z,96553.06
2022-09-02T09:24:37.922Z,96555.03
2022-09-02T09:27:10.644Z,96556.75
2022-09-02T09:29:38.927Z,96549.88
2022-09-02T09:32:25.380Z,96550.66
2022-09-02T09:35:01.658Z,96554.00
2022-09-02T09:37:36.098Z,96551.16
2022-09-02T09:40:27.142Z,96550.97
2022-09-02T09:42:57.483Z,96551.81
2022-09-02T09:45:32.739Z,96553.63
2022-09-02T09:48:30.822Z,96543.56
2022-09-02T09:51:14.672Z,96545.88
2022-09-02T09:53:42.919Z,96549.59
2022-09-02T09:56:26.661Z,96540.38
2022-09-02T09:58:55.129Z,96544.16
2022-09-02T10:01:25.954Z,96533.09
2022-09-02T10:04:01.031Z,96524.53
2022-09-02T10:06:39.466Z,96521.97
2022-09-02T10:09:27.028Z,96527.72
2022-09-02T10:11:58.451Z,96529.06
2022-09-02T10:14:33.534Z,96530.84
2022-09-02T10:17:12.787Z,96527.25
2022-09-02T10:19:48.317Z,96533.56
2022-09-02T10:22:59.676Z,96529.69
2022-09-02T10:25:35.674Z,96522.84
2022-09-02T10:28:12.261Z,96517.16
2022-09-02T10:30:46.762Z,96515.72
2022-09-02T10:33:26.939Z,96514.41
2022-09-02T10:36:04.027Z,96512.66
2022-09-02T10:38:40.887Z,96511.31
2022-09-02T10:41:20.732Z,96498.06
2022-09-02T10:44:21.990Z,96493.09
2022-09-02T10:47:00.951Z,96492.28
2022-09-02T10:50:03.901Z,96487.03
2022-09-02T10:53:08.773Z,96489.16
2022-09-02T10:55:52.408Z,96485.94
2022-09-02T10:58:25.827Z,96479.91
2022-09-02T11:00:57.911Z,96482.97
2022-09-02T11:03:31.932Z,96478.81
2022-09-02T11:06:06.976Z,96470.56
2022-09-02T11:08:40.829Z,96473.72
2022-09-02T11:11:16.015Z,96465.31
2022-09-02T11:13:56.011Z,96461.53
2022-09-02T11:16:28.764Z,96462.44
2022-09-02T11:19:03.697Z,96455.72
2022-09-02T11:21:43.321Z,96456.56
2022-09-02T11:24:16.230Z,96451.94
2022-09-02T11:26:50.887Z,96458.03
2022-09-02T11:29:23.229Z,96456.44
2022-09-02T11:31:59.459Z,96455.72
2022-09-02T11:34:37.547Z,96458.03
2022-09-02T11:37:08.396Z,96451.72
2022-09-02T11:40:11.771Z,96453.94
2022-09-02T11:42:51.560Z,96448.31
2022-09-02T11:45:58.707Z,96450.63
2022-09-02T11:49:00.743Z,96452.56
2022-09-02T11:51:57.155Z,96450.53
2022-09-02T11:54:27.761Z,96443.75
2022-09-02T11:57:00.301Z,96453.38
2022-09-02T12:00:02.349Z,96448.38
2022-09-02T12:02:45.718Z,96452.09
2022-09-02T12:06:05.408Z,96443.75
2022-09-02T12:09:09.971Z,96447.66
2022-09-02T12:11:45.539Z,96439.69
2022-09-02T12:15:07.371Z,96441.63
2022-09-02T12:17:40.728Z,96448.56
2022-09-02T12:20:12.214Z,96447.25
2022-09-02T12:22:42.612Z,96450.38
2022-09-02T12:25:38.345Z,96451.69
2022-09-02T12:28:25.491Z,96438.81
2022-09-02T12:31:22.551Z,96439.72
2022-09-02T12:33:53.019Z,96446.38
2022-09-02T12:36:46.573Z,96435.25
2022-09-02T12:40:03.549Z,96426.56
2022-09-02T12:42:34.603Z,96420.25
2022-09-02T12:45:12.281Z,96417.66
2022-09-02T12:47:59.635Z,96422.38
2022-09-02T12:50:34.564Z,96416.34
2022-09-02T12:53:22.280Z,96415.53
2022-09-02T12:55:57.166Z,96412.84
2022-09-02T12:58:26.340Z,96408.72
2022-09-02T13:01:03.741Z,96406.03
2022-09-02T13:03:46.737Z,96411.63
2022-09-02T13:06:26.004Z,96402.78
2022-09-02T13:09:14.698Z,96400.34
2022-09-02T13:12:23.920Z,96385.75
2022-09-02T13:15:06.418Z,96391.19
2022-09-02T13:17:47.903Z,96396.56
2022-09-02T13:20:56.001Z,96381.06
2022-09-02T13:23:49.138Z,96379.03
2022-09-02T13:26:53.148Z,96372.00
2022-09-02T13:29:58.587Z,96370.84
2022-09-02T13:32:28.672Z,96365.59
2022-09-02T13:35:01.301Z,96361.50
2022-09-02T13:37:32.138Z,96367.88
2022-09-02T13:40:05.144Z,96360.69
2022-09-02T13:42:33.645Z,96355.16
2022-09-02T13:45:14.007Z,96342.41
2022-09-02T13:47:47.246Z,96345.09
2022-09-02T13:50:19.551Z,96341.38
2022-09-02T13:55:48.341Z,96337.41
2022-09-02T13:58:25.378Z,96346.09
2022-09-02T14:00:54.739Z,96343.03
2022-09-02T14:03:27.818Z,96338.69
2022-09-02T14:06:00.074Z,96326.28
2022-09-02T14:08:30.281Z,96326.50
2022-09-02T14:11:07.352Z,96327.94
2022-09-02T14:13:36.896Z,96321.38
2022-09-02T14:16:33.577Z,96324.28
2022-09-02T14:19:06.463Z,96313.94
2022-09-02T14:21:36.253Z,96309.81
2022-09-02T14:24:05.635Z,96299.22
2022-09-02T14:26:38.673Z,96303.00
2022-09-02T14:29:07.959Z,96301.56
2022-09-02T14:31:38.004Z,96294.53
2022-09-02T14:34:26.230Z,96299.72
2022-09-02T14:36:54.287Z,96298.06
2022-09-02T14:39:22.544Z,96286.44
2022-09-02T14:41:53.593Z,96290.22
2022-09-02T14:44:28.832Z,96290.63
2022-09-02T14:46:59.260Z,96291.44
2022-09-02T14:49:29.919Z,96295.19
2022-09-02T14:52:00.446Z,96281.56
2022-09-02T14:54:36.731Z,96285.28
2022-09-02T14:57:07.883Z,96282.16
2022-09-02T14:59:35.929Z,96264.19
2022-09-02T15:02:04.257Z,96264.38
2022-09-02T15:04:35.615Z,96269.16
2022-09-02T15:07:03.858Z,96266.47
2022-09-02T15:09:31.978Z,96270.81
2022-09-02T15:12:02.815Z,96269.34
2022-09-02T15:14:32.623Z,96275.94
2022-09-02T15:17:10.968Z,96273.47
2022-09-02T15:19:39.101Z,96275.53
2022-09-02T15:22:07.261Z,96283.38
2022-09-02T15:24:36.497Z,96302.00
2022-09-02T15:27:05.026Z,96299.16
2022-09-02T15:29:34.492Z,96301.22
2022-09-02T15:32:04.194Z,96300.59
2022-09-02T15:34:32.785Z,96305.38
2022-09-02T15:37:01.016Z,96303.69
2022-09-02T15:39:29.208Z,96297.91
2022-09-02T15:41:58.772Z,96300.59
2022-09-02T15:44:28.446Z,96297.06
2022-09-02T15:46:58.049Z,96297.69
2022-09-02T15:49:26.381Z,96292.13
2022-09-02T15:51:55.301Z,96295.00
2022-09-02T15:54:25.313Z,96289.63
2022-09-02T15:56:56.697Z,96277.63
2022-09-02T15:59:25.883Z,96278.03
2022-09-02T16:01:56.576Z,96276.00
2022-09-02T16:04:27.284Z,96273.31
2022-09-02T16:06:55.864Z,96270.63
2022-09-02T16:09:24.435Z,96265.25
2022-09-02T16:11:56.100Z,96271.84
2022-09-02T16:14:25.990Z,96279.72
2022-09-02T16:16:56.178Z,96285.28
2022-09-02T16:19:29.990Z,96276.41
2022-09-02T16:21:59.445Z,96283.59
2022-09-02T16:24:28.026Z,96281.16
2022-09-02T16:26:56.180Z,96275.13
2022-09-02T16:29:28.009Z,96276.34
2022-09-02T16:32:14.338Z,96262.28
2022-09-02T16:34:45.439Z,96267.66
2022-09-02T16:37:13.984Z,96273.22
2022-09-02T16:39:42.364Z,96271.75
2022-09-02T16:42:10.695Z,96275.69
2022-09-02T16:44:41.563Z,96279.19
2022-09-02T16:47:12.787Z,96273.22
2022-09-02T16:49:41.918Z,96271.53
2022-09-02T16:52:11.488Z,96277.72
2022-09-02T16:54:41.077Z,96280.41
2022-09-02T16:57:09.763Z,96275.44
2022-09-02T16:59:37.958Z,96273.59
2022-09-02T17:02:06.388Z,96261.78
2022-09-02T17:04:34.514Z,96263.63
2022-09-02T17:07:02.630Z,96268.56
2022-09-02T17:09:32.476Z,96266.47
2022-09-02T17:12:00.557Z,96268.28
2022-09-02T17:14:28.668Z,96262.09
2022-09-02T17:16:56.972Z,96266.19
2022-09-02T17:19:29.851Z,96270.28
2022-09-02T17:22:00.124Z,96276.03
2022-09-02T17:24:30.703Z,96265.88
2022-09-02T17:27:02.161Z,96258.19
2022-09-02T17:29:48.466Z,96261.88
2022-09-02T17:32:17.826Z,96267.81
2022-09-02T17:34:46.134Z,96257.44
2022-09-02T17:37:14.256Z,96263.78
2022-09-02T17:39:42.475Z,96255.69
2022-09-02T17:42:12.117Z,96257.94
2022-09-02T17:44:40.576Z,96255.59
2022-09-02T17:47:10.641Z,96255.38
2022-09-02T17:49:42.007Z,96256.97
2022-09-02T17:52:11.332Z,96256.50
2022-09-02T17:54:41.143Z,96262.66
2022-09-02T17:57:21.393Z,96262.22
2022-09-02T18:00:10.772Z,96256.97
2022-09-02T18:03:28.794Z,96262.06
2022-09-02T18:06:08.781Z,96261.22
2022-09-02T18:08:45.903Z,96263.03
2022-09-02T18:11:14.302Z,96265.59
2022-09-02T18:13:54.737Z,96268.09
2022-09-02T18:16:36.583Z,96274.19
2022-09-02T18:19:16.279Z,96267.59
2022-09-02T18:21:54.227Z,96261.75
2022-09-02T18:24:36.156Z,96265.63
2022-09-02T18:27:11.949Z,96275.06
2022-09-02T18:29:53.250Z,96274.00
2022-09-02T18:32:36.265Z,96274.53
2022-09-02T18:35:15.083Z,96283.97
2022-09-02T18:37:53.947Z,96279.16
2022-09-02T18:40:33.603Z,96285.09
2022-09-02T18:43:12.971Z,96292.22
2022-09-02T18:45:49.272Z,96287.88
2022-09-02T18:48:20.788Z,96294.63
2022-09-02T18:50:57.350Z,96289.66
2022-09-02T18:53:30.042Z,96294.09
2022-09-02T18:56:03.570Z,96295.72
2022-09-02T18:58:38.226Z,96291.09
2022-09-02T19:01:11.686Z,96291.69
2022-09-02T19:03:41.515Z,96284.66
2022-09-02T19:06:17.039Z,96296.28
2022-09-02T19:08:44.912Z,96292.13
2022-09-02T19:11:15.078Z,96290.66
2022-09-02T19:13:47.230Z,96292.97
2022-09-02T19:16:19.565Z,96289.97
2022-09-02T19:18:48.250Z,96293.00
2022-09-02T19:21:20.968Z,96301.41
2022-09-02T19:23:50.087Z,96290.22
2022-09-02T19:26:18.977Z,96290.22
2022-09-02T19:28:48.476Z,96292.25
2022-09-02T19:31:22.776Z,96288.44
2022-09-02T19:33:54.176Z,96291.13
2022-09-02T19:36:24.230Z,96294.34
2022-09-02T19:38:54.519Z,96286.50
2022-09-02T19:41:25.658Z,96283.84
2022-09-02T19:43:54.111Z,96278.38
2022-09-02T19:46:59.717Z,96280.88
2022-09-02T19:49:12.609Z,96277.72
2022-09-02T19:51:42.387Z,96279.56
2022-09-02T19:54:12.578Z,96275.03
2022-09-02T19:56:41.114Z,96274.59
2022-09-02T19:59:09.341Z,96274.09
2022-09-02T20:01:38.727Z,96264.41
2022-09-02T20:04:07.018Z,96261.09
2022-09-02T20:06:34.862Z,96257.47
2022-09-02T20:09:02.911Z,96257.81
2022-09-02T20:11:31.425Z,96252.94
2022-09-02T20:13:59.558Z,96251.63
2022-09-02T20:16:29.612Z,96256.00
2022-09-02T20:18:59.088Z,96257.16
2022-09-02T20:21:29.290Z,96269.53
2022-09-02T20:24:04.471Z,96252.84
2022-09-02T20:26:41.900Z,96260.56
2022-09-02T20:29:25.623Z,96253.38
2022-09-02T20:32:07.278Z,96259.44
2022-09-02T20:34:53.131Z,96251.88
2022-09-02T20:37:33.436Z,96265.63
2022-09-02T20:40:17.885Z,96255.81
2022-09-02T20:43:03.332Z,96251.66
2022-09-02T20:45:39.285Z,96263.53
2022-09-02T20:48:25.239Z,96264.56
2022-09-02T20:51:02.832Z,96261.41
2022-09-02T20:53:50.143Z,96275.31
2022-09-02T20:56:24.188Z,96272.63
2022-09-02T20:59:00.352Z,96285.34
2022-09-02T21:01:31.759Z,96285.03
2022-09-02T21:04:07.308Z,96287.03
2022-09-02T21:06:42.152Z,96280.41
2022-09-02T21:09:18.497Z,96293.13
2022-09-02T21:12:00.661Z,96288.00
2022-09-02T21:14:39.537Z,96289.00
2022-09-02T21:17:12.240Z,96279.00
2022-09-02T21:19:45.443Z,96278.00
2022-09-02T21:22:22.830Z,96279.34
2022-09-02T21:24:55.835Z,96275.47
2022-09-02T21:27:27.900Z,96279.88
2022-09-02T21:30:02.754Z,96274.59
2022-09-02T21:32:37.964Z,96277.25
2022-09-02T21:35:11.858Z,96273.56
2022-09-02T21:37:45.253Z,96274.28
2022-09-02T21:40:16.689Z,96272.13
2022-09-02T21:43:00.513Z,96272.00
2022-09-02T21:45:41.386Z,96272.34
2022-09-02T21:48:23.658Z,96281.69
2022-09-02T21:50:59.512Z,96273.03
2022-09-02T21:53:45.784Z,96275.34
2022-09-02T21:56:33.001Z,96277.69
2022-09-02T21:59:23.075Z,96273.69
2022-09-02T22:01:57.858Z,96275.38
2022-09-02T22:04:39.122Z,96274.56
2022-09-02T22:07:19.244Z,96279.25
2022-09-02T22:09:55.526Z,96279.75
2022-09-02T22:12:26.321Z,96283.78
2022-09-02T22:15:01.858Z,96280.44
2022-09-02T22:17:45.757Z,96290.66
2022-09-02T22:20:17.821Z,96288.47
2022-09-02T22:22:53.372Z,96287.16
2022-09-02T22:25:23.265Z,96286.47
2022-09-02T22:27:55.227Z,96283.00
2022-09-02T22:30:23.323Z,96284.97
2022-09-02T22:32:58.836Z,96278.13
2022-09-02T22:35:32.742Z,96286.81
2022-09-02T22:38:10.700Z,96277.13
2022-09-02T22:40:45.629Z,96278.13
2022-09-02T22:43:19.832Z,96278.78
2022-09-02T22:46:27.847Z,96276.94
2022-09-02T22:49:18.530Z,96275.47
2022-09-02T22:52:08.703Z,96277.13
2022-09-02T22:54:36.784Z,96273.47
2022-09-02T22:57:11.633Z,96274.97
2022-09-02T22:59:48.812Z,96266.28
2022-09-02T23:02:22.784Z,96267.09
2022-09-02T23:05:04.527Z,96257.94
2022-09-02T23:07:33.000Z,96259.78
2022-09-02T23:10:01.945Z,96260.44
2022-09-02T23:12:39.613Z,96266.44
2022-09-02T23:15:33.015Z,96259.44
2022-09-02T23:18:11.457Z,96263.94
2022-09-02T23:20:48.409Z,96256.09
2022-09-02T23:23:29.010Z,96255.78
2022-09-02T23:26:09.958Z,96251.63
2022-09-02T23:28:56.915Z,96255.94
2022-09-02T23:31:31.844Z,96250.59
2022-09-02T23:34:13.690Z,96250.78
2022-09-02T23:36:47.375Z,96249.94
2022-09-02T23:39:29.543Z,96253.13
2022-09-02T23:42:00.777Z,96246.09
2022-09-02T23:44:31.192Z,96244.59
2022-09-02T23:47:12.268Z,96258.63
2022-09-02T23:49:49.050Z,96256.97
2022-09-02T23:52:26.356Z,96254.47
2022-09-02T23:55:05.567Z,96257.78
2022-09-02T23:57:58.255Z,96248.09
